Saginaw, Oregon
Current Conditions -  °F | °C
As of 10:05 AM on Sunday 21 Dec 2014 (Local Time) from KEUG Reporting Station
Haze Haze  
Wind Chill: 55°   Ceiling: 2400
Heat Index: 55°   Visibility: 5mi
Dew Point: 52°   Wind: 7mph
Humidity: 89%   Direction: 210°SSW
Pressure: 30.12"   Gusts: NA
Location:  43.83°N, 123.04°W
Report Text: KEUG 211805Z 21006KT 5SM BR BKN024 BKN032 OVC055 13/11 A3012 RMK AO2 T01280111
Loading
Personal Weather Stations






























Interactive Weather Map New forecast layout! Learn more

10-Day Weather Forecast

Advertisements
Track Severe Weather on mobile